createdAt,value
2023-02-04T00:00:53.000Z,96.4
2023-02-04T00:02:09.000Z,96.4
2023-02-04T00:03:25.000Z,96.5
2023-02-04T00:04:41.000Z,96.7
2023-02-04T00:05:58.000Z,96.7
2023-02-04T00:07:14.000Z,96.9
2023-02-04T00:08:30.000Z,96.8
2023-02-04T00:09:46.000Z,96.8
2023-02-04T00:11:03.000Z,96.8
2023-02-04T00:12:19.000Z,96.9
2023-02-04T00:13:35.000Z,96.9
2023-02-04T00:14:51.000Z,96.8
2023-02-04T00:16:08.000Z,96.7
2023-02-04T00:17:23.000Z,96.7
2023-02-04T00:18:39.000Z,96.8
2023-02-04T00:19:55.000Z,96.9
2023-02-04T00:21:11.000Z,97
2023-02-04T00:22:28.000Z,97.1
2023-02-04T00:23:44.000Z,97.2
2023-02-04T00:25:00.000Z,97.2
2023-02-04T00:26:16.000Z,97.3
2023-02-04T00:27:33.000Z,97.3
2023-02-04T00:28:49.000Z,97.4
2023-02-04T00:30:04.000Z,97.4
2023-02-04T00:31:19.000Z,97.5
2023-02-04T00:32:36.000Z,97.6
2023-02-04T00:33:51.000Z,97.8
2023-02-04T00:35:06.000Z,98
2023-02-04T00:36:22.000Z,98.2
2023-02-04T00:37:39.000Z,98
2023-02-04T00:38:55.000Z,98.2
2023-02-04T00:40:11.000Z,98.2
2023-02-04T00:41:27.000Z,98.2
2023-02-04T00:42:44.000Z,98.5
2023-02-04T00:44:00.000Z,98.8
2023-02-04T00:45:16.000Z,98.8
2023-02-04T00:46:32.000Z,98.7
2023-02-04T00:47:49.000Z,98.5
2023-02-04T00:49:05.000Z,98.7
2023-02-04T00:50:21.000Z,98.9
2023-02-04T00:51:36.000Z,98.7
2023-02-04T00:52:52.000Z,98.7
2023-02-04T00:55:25.000Z,98.7
2023-02-04T00:56:41.000Z,98.9
2023-02-04T00:57:57.000Z,98.9
2023-02-04T00:59:14.000Z,98.6
2023-02-04T01:00:30.000Z,98.6
2023-02-04T01:01:45.000Z,98.5
2023-02-04T01:03:00.000Z,98.4
2023-02-04T01:04:17.000Z,98.4
2023-02-04T01:05:33.000Z,98.4
2023-02-04T01:06:49.000Z,98.5
2023-02-04T01:08:04.000Z,98.5
2023-02-04T01:09:20.000Z,98.4
2023-02-04T01:10:36.000Z,98.5
2023-02-04T01:11:52.000Z,98.5
2023-02-04T01:13:08.000Z,98.6
2023-02-04T01:14:25.000Z,98.7
2023-02-04T01:15:41.000Z,98.8
2023-02-04T01:16:57.000Z,98.8
2023-02-04T01:18:13.000Z,98.9
2023-02-04T01:19:29.000Z,98.8
2023-02-04T01:20:46.000Z,98.8
2023-02-04T01:22:02.000Z,98.8
2023-02-04T01:23:18.000Z,98.9
2023-02-04T01:24:34.000Z,99
2023-02-04T01:25:50.000Z,99
2023-02-04T01:27:06.000Z,99.1
2023-02-04T01:28:22.000Z,99.2
2023-02-04T01:29:38.000Z,99.1
2023-02-04T01:30:55.000Z,99
2023-02-04T01:32:11.000Z,99
2023-02-04T01:33:27.000Z,99
2023-02-04T01:34:42.000Z,99
2023-02-04T01:35:58.000Z,99
2023-02-04T01:37:13.000Z,99
2023-02-04T01:38:28.000Z,98.9
2023-02-04T01:39:44.000Z,98.9
2023-02-04T01:41:01.000Z,98.9
2023-02-04T01:42:17.000Z,98.9
2023-02-04T01:43:33.000Z,99
2023-02-04T01:44:49.000Z,99
2023-02-04T01:46:05.000Z,99
2023-02-04T01:47:22.000Z,98.9
2023-02-04T01:48:38.000Z,98.8
2023-02-04T01:49:54.000Z,98.6
2023-02-04T01:51:10.000Z,98.6
2023-02-04T01:52:27.000Z,98.6
2023-02-04T01:53:43.000Z,98.6
2023-02-04T01:54:58.000Z,98.6
2023-02-04T01:56:14.000Z,98.6
2023-02-04T01:57:31.000Z,98.5
2023-02-04T01:58:47.000Z,98.5
2023-02-04T02:00:03.000Z,98.5
2023-02-04T02:01:19.000Z,98.5
2023-02-04T02:02:36.000Z,98.5
2023-02-04T02:03:51.000Z,98.5
2023-02-04T02:05:06.000Z,98.6
2023-02-04T02:06:21.000Z,98.6
2023-02-04T02:07:38.000Z,98.6
2023-02-04T02:08:54.000Z,98.7
2023-02-04T02:10:10.000Z,98.7
2023-02-04T02:11:25.000Z,98.7
2023-02-04T02:12:41.000Z,98.7
2023-02-04T02:13:57.000Z,98.8
2023-02-04T02:15:13.000Z,98.7
2023-02-04T02:16:29.000Z,98.6
2023-02-04T02:17:45.000Z,98.5
2023-02-04T02:19:02.000Z,98.5
2023-02-04T02:20:18.000Z,98.4
2023-02-04T02:21:34.000Z,98.5
2023-02-04T02:22:50.000Z,98.5
2023-02-04T02:24:07.000Z,98.6
2023-02-04T02:25:23.000Z,98.5
2023-02-04T02:26:39.000Z,98.5
2023-02-04T02:27:55.000Z,98.6
2023-02-04T02:29:11.000Z,98.6
2023-02-04T02:30:27.000Z,98.6
2023-02-04T02:31:43.000Z,98.6
2023-02-04T02:32:59.000Z,98.7
2023-02-04T02:34:16.000Z,98.8
2023-02-04T02:35:32.000Z,98.8
2023-02-04T02:36:48.000Z,98.8
2023-02-04T02:38:03.000Z,98.9
2023-02-04T02:39:19.000Z,98.8
2023-02-04T02:40:34.000Z,98.7
2023-02-04T02:41:49.000Z,98.7
2023-02-04T02:43:05.000Z,98.7
2023-02-04T02:44:21.000Z,98.7
2023-02-04T02:45:38.000Z,98.7
2023-02-04T02:46:54.000Z,98.7
2023-02-04T02:48:10.000Z,98.7
2023-02-04T02:49:26.000Z,98.7
2023-02-04T02:50:43.000Z,98.7
2023-02-04T02:51:59.000Z,98.8
2023-02-04T02:53:15.000Z,98.9
2023-02-04T02:54:31.000Z,98.9
2023-02-04T02:55:48.000Z,99
2023-02-04T02:57:04.000Z,99.2
2023-02-04T02:58:19.000Z,99.2
2023-02-04T02:59:35.000Z,99.2
2023-02-04T03:00:52.000Z,99.2
2023-02-04T03:02:08.000Z,99.2
2023-02-04T03:03:24.000Z,99.3
2023-02-04T03:04:40.000Z,99.5
2023-02-04T03:05:56.000Z,99.6
2023-02-04T03:07:12.000Z,99.6
2023-02-04T03:08:27.000Z,99.5
2023-02-04T03:09:43.000Z,99.5
2023-02-04T03:10:59.000Z,99.5
2023-02-04T03:12:16.000Z,99.5
2023-02-04T03:13:32.000Z,99.6
2023-02-04T03:14:48.000Z,99.6
2023-02-04T03:16:04.000Z,99.6
2023-02-04T03:17:21.000Z,99.6
2023-02-04T03:18:37.000Z,99.6
2023-02-04T03:19:53.000Z,99.6
2023-02-04T03:21:09.000Z,99.6
2023-02-04T03:22:26.000Z,99.5
2023-02-04T03:23:42.000Z,99.5
2023-02-04T03:24:58.000Z,99.5
2023-02-04T03:26:14.000Z,99.5
2023-02-04T03:27:30.000Z,99.5
2023-02-04T03:28:46.000Z,99.6
2023-02-04T03:30:02.000Z,99.6
2023-02-04T03:31:18.000Z,99.6
2023-02-04T03:32:34.000Z,99.5
2023-02-04T03:33:50.000Z,99.3
2023-02-04T03:35:05.000Z,99.3
2023-02-04T03:36:20.000Z,99.5
2023-02-04T03:37:35.000Z,99.5
2023-02-04T03:38:52.000Z,99.5
2023-02-04T03:40:08.000Z,99.5
2023-02-04T03:41:24.000Z,99.5
2023-02-04T03:42:40.000Z,99.6
2023-02-04T03:43:57.000Z,99.6
2023-02-04T03:45:13.000Z,99.6
2023-02-04T03:46:29.000Z,99.6
2023-02-04T03:47:45.000Z,99.6
2023-02-04T03:49:02.000Z,99.5
2023-02-04T03:50:18.000Z,99.6
2023-02-04T03:51:34.000Z,99.6
2023-02-04T03:52:50.000Z,99.5
2023-02-04T03:54:06.000Z,99.6
2023-02-04T03:55:22.000Z,99.6
2023-02-04T03:56:38.000Z,99.6
2023-02-04T03:57:54.000Z,99.5
2023-02-04T03:59:10.000Z,99.5
2023-02-04T04:00:27.000Z,99.6
2023-02-04T04:01:43.000Z,99.7
2023-02-04T04:02:58.000Z,99.8
2023-02-04T04:04:14.000Z,99.9
2023-02-04T04:05:30.000Z,100
2023-02-04T04:06:45.000Z,100
2023-02-04T04:08:01.000Z,100
2023-02-04T04:09:17.000Z,100
2023-02-04T04:10:34.000Z,100
2023-02-04T04:11:50.000Z,100
2023-02-04T04:13:06.000Z,100
2023-02-04T04:14:22.000Z,100
2023-02-04T04:15:39.000Z,100
2023-02-04T04:16:55.000Z,100
2023-02-04T04:18:11.000Z,100
2023-02-04T04:19:27.000Z,100
2023-02-04T04:20:44.000Z,100
2023-02-04T04:22:00.000Z,100
2023-02-04T04:23:15.000Z,100
2023-02-04T04:24:31.000Z,100
2023-02-04T04:25:47.000Z,100
2023-02-04T04:27:04.000Z,100
2023-02-04T04:28:20.000Z,100
2023-02-04T04:29:36.000Z,100
2023-02-04T04:30:52.000Z,100
2023-02-04T04:32:08.000Z,100
2023-02-04T04:33:23.000Z,100
2023-02-04T04:34:38.000Z,100
2023-02-04T04:35:53.000Z,100
2023-02-04T04:37:10.000Z,100
2023-02-04T04:38:26.000Z,100
2023-02-04T04:39:42.000Z,100
2023-02-04T04:40:58.000Z,100
2023-02-04T04:42:15.000Z,100
2023-02-04T04:43:31.000Z,100
2023-02-04T04:44:47.000Z,100
2023-02-04T04:46:03.000Z,100
2023-02-04T04:47:20.000Z,100
2023-02-04T04:48:36.000Z,100
2023-02-04T04:49:52.000Z,100
2023-02-04T04:51:08.000Z,100
2023-02-04T04:52:24.000Z,100
2023-02-04T04:53:40.000Z,100
2023-02-04T04:54:56.000Z,100
2023-02-04T04:56:12.000Z,100
2023-02-04T04:57:28.000Z,100
2023-02-04T04:58:45.000Z,100
2023-02-04T05:00:01.000Z,100
2023-02-04T05:01:16.000Z,100
2023-02-04T05:02:31.000Z,100
2023-02-04T05:03:48.000Z,100
2023-02-04T05:05:04.000Z,100
2023-02-04T05:06:19.000Z,100
2023-02-04T05:07:34.000Z,100
2023-02-04T05:08:51.000Z,100
2023-02-04T05:10:07.000Z,100
2023-02-04T05:11:23.000Z,100
2023-02-04T05:12:39.000Z,100
2023-02-04T05:13:56.000Z,100
2023-02-04T05:15:12.000Z,100
2023-02-04T05:16:28.000Z,100
2023-02-04T05:17:44.000Z,100
2023-02-04T05:19:01.000Z,100
2023-02-04T05:20:17.000Z,100
2023-02-04T05:21:33.000Z,100
2023-02-04T05:22:49.000Z,100
2023-02-04T05:24:04.000Z,100
2023-02-04T05:25:21.000Z,100
2023-02-04T05:26:37.000Z,100
2023-02-04T05:27:53.000Z,100
2023-02-04T05:29:09.000Z,100
2023-02-04T05:30:26.000Z,100
2023-02-04T05:31:42.000Z,100
2023-02-04T05:32:57.000Z,100
2023-02-04T05:34:12.000Z,100
2023-02-04T05:35:28.000Z,100
2023-02-04T05:36:43.000Z,100
2023-02-04T05:37:59.000Z,100
2023-02-04T05:39:15.000Z,100
2023-02-04T05:40:32.000Z,100
2023-02-04T05:41:48.000Z,100
2023-02-04T05:43:04.000Z,100
2023-02-04T05:44:20.000Z,100
2023-02-04T05:45:37.000Z,100
2023-02-04T05:46:53.000Z,100
2023-02-04T05:48:09.000Z,100
2023-02-04T05:49:25.000Z,100
2023-02-04T05:50:41.000Z,100
2023-02-04T05:51:58.000Z,100
2023-02-04T05:53:13.000Z,100
2023-02-04T05:54:29.000Z,100
2023-02-04T05:55:45.000Z,100
2023-02-04T05:57:02.000Z,100
2023-02-04T05:58:18.000Z,100
2023-02-04T05:59:34.000Z,100
2023-02-04T06:00:50.000Z,100
2023-02-04T06:02:06.000Z,100
2023-02-04T06:03:21.000Z,100
2023-02-04T06:04:36.000Z,100
2023-02-04T06:05:51.000Z,100
2023-02-04T06:07:08.000Z,100
2023-02-04T06:08:24.000Z,100
2023-02-04T06:09:40.000Z,100
2023-02-04T06:10:56.000Z,100
2023-02-04T06:12:13.000Z,100
2023-02-04T06:13:29.000Z,100
2023-02-04T06:14:45.000Z,100
2023-02-04T06:16:01.000Z,100
2023-02-04T06:17:17.000Z,100
2023-02-04T06:18:34.000Z,100
2023-02-04T06:19:50.000Z,100
2023-02-04T06:21:05.000Z,100
2023-02-04T06:23:38.000Z,100
2023-02-04T06:24:54.000Z,100
2023-02-04T06:26:10.000Z,100
2023-02-04T06:27:26.000Z,100
2023-02-04T06:28:43.000Z,100
2023-02-04T06:29:59.000Z,100
2023-02-04T06:31:15.000Z,100
2023-02-04T06:32:31.000Z,100
2023-02-04T06:33:48.000Z,100
2023-02-04T06:35:04.000Z,100
2023-02-04T06:36:20.000Z,100
2023-02-04T06:37:35.000Z,100
2023-02-04T06:38:52.000Z,100
2023-02-04T06:40:08.000Z,100
2023-02-04T06:41:24.000Z,100
2023-02-04T06:42:40.000Z,100
2023-02-04T06:43:56.000Z,100
2023-02-04T06:45:13.000Z,100
2023-02-04T06:46:29.000Z,100
2023-02-04T06:47:45.000Z,100
2023-02-04T06:49:01.000Z,100
2023-02-04T06:50:18.000Z,100
2023-02-04T06:51:34.000Z,100
2023-02-04T06:52:50.000Z,100
2023-02-04T06:54:05.000Z,100
2023-02-04T06:55:22.000Z,100
2023-02-04T06:56:38.000Z,100
2023-02-04T06:57:53.000Z,100
2023-02-04T06:59:08.000Z,100
2023-02-04T07:00:24.000Z,100
2023-02-04T07:01:39.000Z,100
2023-02-04T07:02:55.000Z,100
2023-02-04T07:04:11.000Z,100
2023-02-04T07:05:28.000Z,100
2023-02-04T07:06:44.000Z,100
2023-02-04T07:08:00.000Z,100
2023-02-04T07:09:16.000Z,100
2023-02-04T07:10:32.000Z,100
2023-02-04T07:11:49.000Z,100
2023-02-04T07:13:05.000Z,100
2023-02-04T07:14:21.000Z,100
2023-02-04T07:15:37.000Z,100
2023-02-04T07:16:54.000Z,100
2023-02-04T07:18:09.000Z,100
2023-02-04T07:19:25.000Z,100
2023-02-04T07:20:41.000Z,100
2023-02-04T07:21:58.000Z,100
2023-02-04T07:23:14.000Z,100
2023-02-04T07:24:30.000Z,100
2023-02-04T07:25:46.000Z,100
2023-02-04T07:27:03.000Z,100
2023-02-04T07:28:18.000Z,100
2023-02-04T07:29:33.000Z,100
2023-02-04T07:30:48.000Z,100
2023-02-04T07:32:04.000Z,100
2023-02-04T07:33:20.000Z,100
2023-02-04T07:34:36.000Z,100
2023-02-04T07:35:52.000Z,100
2023-02-04T07:37:08.000Z,100
2023-02-04T07:38:25.000Z,100
2023-02-04T07:39:41.000Z,100
2023-02-04T07:40:57.000Z,100
2023-02-04T07:42:13.000Z,100
2023-02-04T07:43:30.000Z,100
2023-02-04T07:44:46.000Z,100
2023-02-04T07:46:02.000Z,100
2023-02-04T07:47:18.000Z,100
2023-02-04T07:48:34.000Z,100
2023-02-04T07:49:50.000Z,100
2023-02-04T07:51:06.000Z,100
2023-02-04T07:52:22.000Z,100
2023-02-04T07:53:39.000Z,100
2023-02-04T07:54:55.000Z,100
2023-02-04T07:56:11.000Z,100
2023-02-04T07:57:26.000Z,100
2023-02-04T07:58:42.000Z,100
2023-02-04T07:59:58.000Z,100
2023-02-04T08:01:13.000Z,100
2023-02-04T08:02:28.000Z,100
2023-02-04T08:03:45.000Z,100
2023-02-04T08:05:01.000Z,100
2023-02-04T08:06:17.000Z,100
2023-02-04T08:07:33.000Z,100
2023-02-04T08:08:49.000Z,100
2023-02-04T08:10:06.000Z,100
2023-02-04T08:11:22.000Z,100
2023-02-04T08:12:38.000Z,100
2023-02-04T08:13:54.000Z,100
2023-02-04T08:15:11.000Z,100
2023-02-04T08:16:27.000Z,100
2023-02-04T08:17:43.000Z,100
2023-02-04T08:18:58.000Z,100
2023-02-04T08:20:15.000Z,100
2023-02-04T08:21:31.000Z,99.5
2023-02-04T08:22:47.000Z,98.8
2023-02-04T08:24:03.000Z,98.5
2023-02-04T08:25:20.000Z,98.4
2023-02-04T08:26:36.000Z,97.6
2023-02-04T08:27:51.000Z,97.8
2023-02-04T08:30:22.000Z,96.5
2023-02-04T08:31:38.000Z,95.5
2023-02-04T08:32:53.000Z,95.3
2023-02-04T08:34:09.000Z,95.6
2023-02-04T08:35:25.000Z,95.4
2023-02-04T08:36:42.000Z,95.3
2023-02-04T08:37:58.000Z,95.8
2023-02-04T08:39:14.000Z,94.6
2023-02-04T08:40:30.000Z,93.8
2023-02-04T08:41:47.000Z,94.3
2023-02-04T08:43:03.000Z,94.6
2023-02-04T08:44:19.000Z,94
2023-02-04T08:45:35.000Z,94
2023-02-04T08:46:52.000Z,93.5
2023-02-04T08:48:08.000Z,93.3
2023-02-04T08:49:23.000Z,93.1
2023-02-04T08:50:39.000Z,93.4
2023-02-04T08:51:56.000Z,92.8
2023-02-04T08:53:12.000Z,92.7
2023-02-04T08:54:28.000Z,93.3
2023-02-04T08:55:44.000Z,92.2
2023-02-04T08:57:00.000Z,91.5
2023-02-04T08:58:16.000Z,91
2023-02-04T08:59:31.000Z,91.5
2023-02-04T09:00:46.000Z,90.2
2023-02-04T09:02:02.000Z,91
2023-02-04T09:03:18.000Z,90.4
2023-02-04T09:04:34.000Z,91.6
2023-02-04T09:05:50.000Z,90.1
2023-02-04T09:07:06.000Z,89.9
2023-02-04T09:08:23.000Z,89.8
2023-02-04T09:09:39.000Z,88.8
2023-02-04T09:10:55.000Z,89.2
2023-02-04T09:12:11.000Z,89.9
2023-02-04T09:13:28.000Z,89.1
2023-02-04T09:14:44.000Z,89.8
2023-02-04T09:16:00.000Z,90.4
2023-02-04T09:17:16.000Z,90.4
2023-02-04T09:18:32.000Z,89.5
2023-02-04T09:19:48.000Z,89.4
2023-02-04T09:21:04.000Z,90.2
2023-02-04T09:22:20.000Z,89.8
2023-02-04T09:23:36.000Z,91.1
2023-02-04T09:24:53.000Z,89.3
2023-02-04T09:26:09.000Z,89.2
2023-02-04T09:27:25.000Z,88.9
2023-02-04T09:28:41.000Z,89.1
2023-02-04T09:29:58.000Z,88.8
2023-02-04T09:31:14.000Z,89
2023-02-04T09:32:30.000Z,89.3
2023-02-04T09:33:46.000Z,89
2023-02-04T09:35:02.000Z,88.9
2023-02-04T09:36:18.000Z,88.7
2023-02-04T09:37:34.000Z,88.6
2023-02-04T09:38:50.000Z,88.5
2023-02-04T09:40:07.000Z,88.2
2023-02-04T09:41:23.000Z,87.9
2023-02-04T09:42:39.000Z,86.9
2023-02-04T09:43:55.000Z,86.8
2023-02-04T09:46:28.000Z,88
2023-02-04T09:47:44.000Z,89.2
2023-02-04T09:49:00.000Z,87.7
2023-02-04T09:50:16.000Z,86.6
2023-02-04T09:51:32.000Z,87
2023-02-04T09:52:48.000Z,85.3
2023-02-04T09:54:04.000Z,86.5
2023-02-04T09:55:20.000Z,85.2
2023-02-04T09:56:37.000Z,84.6
2023-02-04T09:57:53.000Z,85.3
2023-02-04T09:59:09.000Z,86
2023-02-04T10:00:25.000Z,85.7
2023-02-04T10:01:41.000Z,85.6
2023-02-04T10:02:56.000Z,86.1
2023-02-04T10:04:11.000Z,86.2
2023-02-04T10:05:26.000Z,84.8
2023-02-04T10:06:43.000Z,84.9
2023-02-04T10:07:59.000Z,84.5
2023-02-04T10:09:15.000Z,84.2
2023-02-04T10:10:31.000Z,83.8
2023-02-04T10:11:48.000Z,83.3
2023-02-04T10:13:04.000Z,84.9
2023-02-04T10:14:20.000Z,84.5
2023-02-04T10:15:36.000Z,84.5
2023-02-04T10:16:52.000Z,84.3
2023-02-04T10:18:09.000Z,83.6
2023-02-04T10:19:25.000Z,83.7
2023-02-04T10:20:41.000Z,83.3
2023-02-04T10:21:56.000Z,84.5
2023-02-04T10:23:13.000Z,84.5
2023-02-04T10:24:29.000Z,85.4
2023-02-04T10:25:45.000Z,85.2
2023-02-04T10:27:01.000Z,85.7
2023-02-04T10:28:18.000Z,84.2
2023-02-04T10:30:50.000Z,85.4
2023-02-04T10:32:06.000Z,84.2
2023-02-04T10:33:23.000Z,84.3
2023-02-04T10:34:39.000Z,83.8
2023-02-04T10:35:54.000Z,83.7
2023-02-04T10:37:10.000Z,83.6
2023-02-04T10:38:26.000Z,82.6
2023-02-04T10:39:43.000Z,82.3
2023-02-04T10:40:59.000Z,83.9
2023-02-04T10:42:15.000Z,84.3
2023-02-04T10:43:31.000Z,84.7
2023-02-04T10:44:48.000Z,83.1
2023-02-04T10:46:03.000Z,83.1
2023-02-04T10:47:18.000Z,83.7
2023-02-04T10:48:33.000Z,84
2023-02-04T10:49:49.000Z,84.6
2023-02-04T10:51:05.000Z,84.9
2023-02-04T10:52:21.000Z,84.6
2023-02-04T10:53:37.000Z,84.7
2023-02-04T10:54:54.000Z,85.3
2023-02-04T10:56:10.000Z,85.6
2023-02-04T10:57:26.000Z,84.4
2023-02-04T10:58:42.000Z,85.2
2023-02-04T10:59:59.000Z,85.6
2023-02-04T11:01:15.000Z,85
2023-02-04T11:02:31.000Z,85.8
2023-02-04T11:03:47.000Z,86.3
2023-02-04T11:05:03.000Z,84.9
2023-02-04T11:06:19.000Z,84.5
2023-02-04T11:07:35.000Z,85
2023-02-04T11:08:51.000Z,84.9
2023-02-04T11:10:07.000Z,85.1
2023-02-04T11:11:24.000Z,85
2023-02-04T11:12:40.000Z,84.3
2023-02-04T11:13:56.000Z,83.6
2023-02-04T11:15:12.000Z,84.2
2023-02-04T11:16:28.000Z,83.1
2023-02-04T11:17:43.000Z,83.3
2023-02-04T11:18:58.000Z,82.1
2023-02-04T11:20:13.000Z,81.6
2023-02-04T11:21:30.000Z,81.5
2023-02-04T11:22:46.000Z,81.1
2023-02-04T11:24:02.000Z,81.2
2023-02-04T11:25:18.000Z,81.4
2023-02-04T11:27:51.000Z,81.5
2023-02-04T11:29:07.000Z,81.5
2023-02-04T11:30:23.000Z,81.9
2023-02-04T11:31:39.000Z,82
2023-02-04T11:32:56.000Z,82
2023-02-04T11:34:12.000Z,82
2023-02-04T11:35:28.000Z,82.6
2023-02-04T11:36:43.000Z,84.4
2023-02-04T11:38:00.000Z,83.7
2023-02-04T11:40:32.000Z,81.6
2023-02-04T11:41:47.000Z,80.6
2023-02-04T11:43:03.000Z,80.8
2023-02-04T11:44:19.000Z,80.9
2023-02-04T11:45:35.000Z,80.7
2023-02-04T11:46:51.000Z,80.3
2023-02-04T11:48:08.000Z,80.6
2023-02-04T11:49:24.000Z,80.4
2023-02-04T11:50:40.000Z,80.7
2023-02-04T11:51:56.000Z,81.3
2023-02-04T11:53:13.000Z,82
2023-02-04T11:54:29.000Z,82.8
2023-02-04T11:55:44.000Z,82.1
2023-02-04T11:56:59.000Z,80.5
2023-02-04T11:58:16.000Z,80.6
2023-02-04T11:59:32.000Z,80.8
2023-02-04T12:00:48.000Z,80.4
2023-02-04T12:02:04.000Z,80.3
2023-02-04T12:03:20.000Z,80.7
2023-02-04T12:04:37.000Z,80.9
2023-02-04T12:05:53.000Z,81.8
2023-02-04T12:07:09.000Z,80.4
2023-02-04T12:09:42.000Z,81.1
2023-02-04T12:10:58.000Z,79.4
2023-02-04T12:12:14.000Z,80.3
2023-02-04T12:13:29.000Z,80.2
2023-02-04T12:14:46.000Z,80
2023-02-04T12:16:02.000Z,79.5
2023-02-04T12:17:18.000Z,79.5
2023-02-04T12:18:34.000Z,79.6
2023-02-04T12:19:50.000Z,79.8
2023-02-04T12:21:07.000Z,80.8
2023-02-04T12:22:23.000Z,80.9
2023-02-04T12:23:38.000Z,81.3
2023-02-04T12:24:53.000Z,81.6
2023-02-04T12:26:10.000Z,81.7
2023-02-04T12:27:25.000Z,81.2
2023-02-04T12:28:41.000Z,81.7
2023-02-04T12:29:56.000Z,80.6
2023-02-04T12:31:13.000Z,80.3
2023-02-04T12:32:29.000Z,80.3
2023-02-04T12:33:45.000Z,79.4
2023-02-04T12:35:01.000Z,79.6
2023-02-04T12:36:18.000Z,80.6
2023-02-04T12:37:34.000Z,80.9
2023-02-04T12:38:50.000Z,81.2
2023-02-04T12:40:06.000Z,79.9
2023-02-04T12:41:23.000Z,81.5
2023-02-04T12:42:39.000Z,81.4
2023-02-04T12:43:55.000Z,81.5
2023-02-04T12:45:11.000Z,79.6
2023-02-04T12:46:27.000Z,79.8
2023-02-04T12:47:43.000Z,81.3
2023-02-04T12:48:59.000Z,80.8
2023-02-04T12:50:15.000Z,81.2
2023-02-04T12:51:31.000Z,81.6
2023-02-04T12:52:48.000Z,80.6
2023-02-04T12:54:03.000Z,81.1
2023-02-04T12:55:18.000Z,81.8
2023-02-04T12:56:34.000Z,81.6
2023-02-04T12:57:50.000Z,81.8
2023-02-04T12:59:05.000Z,82.2
2023-02-04T13:00:21.000Z,80.3
2023-02-04T13:01:37.000Z,81.1
2023-02-04T13:02:54.000Z,80.8
2023-02-04T13:04:10.000Z,81.7
2023-02-04T13:05:26.000Z,80.7
2023-02-04T13:06:42.000Z,79.6
2023-02-04T13:07:59.000Z,79.8
2023-02-04T13:09:15.000Z,79.6
2023-02-04T13:10:31.000Z,82.4
2023-02-04T13:11:47.000Z,80.5
2023-02-04T13:13:04.000Z,80
2023-02-04T13:14:20.000Z,81.1
2023-02-04T13:15:35.000Z,81.9
2023-02-04T13:16:51.000Z,81.4
2023-02-04T13:18:07.000Z,81.1
2023-02-04T13:19:24.000Z,80.7
2023-02-04T13:20:40.000Z,80.6
2023-02-04T13:21:56.000Z,79.9
2023-02-04T13:23:12.000Z,79.5
2023-02-04T13:24:28.000Z,79.6
2023-02-04T13:25:43.000Z,79.4
2023-02-04T13:26:58.000Z,80.7
2023-02-04T13:28:13.000Z,80.2
2023-02-04T13:29:30.000Z,79.7
2023-02-04T13:30:46.000Z,79.5
2023-02-04T13:32:02.000Z,79.2
2023-02-04T13:33:18.000Z,78.4
2023-02-04T13:34:35.000Z,79
2023-02-04T13:35:51.000Z,78.5
2023-02-04T13:37:07.000Z,78.3
2023-02-04T13:38:23.000Z,78.3
2023-02-04T13:39:40.000Z,79
2023-02-04T13:40:56.000Z,78.4
2023-02-04T13:42:12.000Z,79.7
2023-02-04T13:43:28.000Z,79.5
2023-02-04T13:44:43.000Z,80.4
2023-02-04T13:47:16.000Z,78.4
2023-02-04T13:48:32.000Z,78.8
2023-02-04T13:49:48.000Z,78.4
2023-02-04T13:51:05.000Z,78.3
2023-02-04T13:52:21.000Z,78
2023-02-04T13:53:37.000Z,78.2
2023-02-04T13:54:53.000Z,79.4
2023-02-04T13:56:10.000Z,80.2
2023-02-04T13:57:26.000Z,78.5
2023-02-04T13:58:42.000Z,79
2023-02-04T13:59:58.000Z,79.5
2023-02-04T14:01:14.000Z,79.5
2023-02-04T14:02:30.000Z,79.4
2023-02-04T14:03:46.000Z,79.3
2023-02-04T14:05:02.000Z,79.3
2023-02-04T14:06:18.000Z,79.2
2023-02-04T14:07:35.000Z,79.5
2023-02-04T14:08:51.000Z,79.8
2023-02-04T14:10:07.000Z,79.4
2023-02-04T14:12:39.000Z,79.9
2023-02-04T14:13:54.000Z,81.3
2023-02-04T14:15:09.000Z,80.2
2023-02-04T14:16:25.000Z,79.5
2023-02-04T14:17:41.000Z,79.8
2023-02-04T14:18:56.000Z,79.7
2023-02-04T14:20:12.000Z,80.6
2023-02-04T14:21:28.000Z,80.2
2023-02-04T14:22:45.000Z,79.8
2023-02-04T14:24:01.000Z,80
2023-02-04T14:25:17.000Z,80.5
2023-02-04T14:26:33.000Z,79.2
2023-02-04T14:27:50.000Z,79.4
2023-02-04T14:29:06.000Z,79.5
2023-02-04T14:30:22.000Z,79.9
2023-02-04T14:31:38.000Z,80.4
2023-02-04T14:32:55.000Z,80.6
2023-02-04T14:34:11.000Z,80.2
2023-02-04T14:35:26.000Z,79.3
2023-02-04T14:36:42.000Z,79.4
2023-02-04T14:37:58.000Z,78.5
2023-02-04T14:39:15.000Z,78.3
2023-02-04T14:40:31.000Z,78.3
2023-02-04T14:41:47.000Z,78.2
2023-02-04T14:43:03.000Z,78.4
2023-02-04T14:44:19.000Z,78
2023-02-04T14:45:34.000Z,79.2
2023-02-04T14:46:50.000Z,79.5
2023-02-04T14:48:06.000Z,79.2
2023-02-04T14:49:22.000Z,79.4
2023-02-04T14:50:38.000Z,79.9
2023-02-04T14:51:53.000Z,78.6
2023-02-04T14:53:09.000Z,78.7
2023-02-04T14:54:26.000Z,78.4
2023-02-04T14:55:42.000Z,79
2023-02-04T14:56:58.000Z,80.2
2023-02-04T14:58:14.000Z,80.8
2023-02-04T14:59:31.000Z,78.7
2023-02-04T15:00:47.000Z,79.2
2023-02-04T15:02:03.000Z,80.2
2023-02-04T15:03:19.000Z,79.2
2023-02-04T15:04:35.000Z,78.6
2023-02-04T15:05:52.000Z,78.3
2023-02-04T15:07:08.000Z,79
2023-02-04T15:08:23.000Z,78.8
2023-02-04T15:09:39.000Z,79
2023-02-04T15:10:56.000Z,79
2023-02-04T15:12:12.000Z,79.2
2023-02-04T15:13:28.000Z,79.1
2023-02-04T15:14:44.000Z,79.6
2023-02-04T15:16:01.000Z,80
2023-02-04T15:17:17.000Z,81.5
2023-02-04T15:18:33.000Z,80.4
2023-02-04T15:19:49.000Z,79.3
2023-02-04T15:21:06.000Z,79.5
2023-02-04T15:22:22.000Z,79.1
2023-02-04T15:23:38.000Z,79.1
2023-02-04T15:24:53.000Z,78.4
2023-02-04T15:26:09.000Z,78.3
2023-02-04T15:27:25.000Z,78.9
2023-02-04T15:28:40.000Z,78.9
2023-02-04T15:29:56.000Z,79.2
2023-02-04T15:31:11.000Z,78.4
2023-02-04T15:32:27.000Z,78.4
2023-02-04T15:33:43.000Z,78.9
2023-02-04T15:34:59.000Z,79
2023-02-04T15:36:15.000Z,78.7
2023-02-04T15:37:32.000Z,78.8
2023-02-04T15:38:48.000Z,78.4
2023-02-04T15:40:04.000Z,78.4
2023-02-04T15:41:20.000Z,78
2023-02-04T15:42:37.000Z,78
2023-02-04T15:43:53.000Z,78.1
2023-02-04T15:45:09.000Z,77.7
2023-02-04T15:46:25.000Z,78.6
2023-02-04T15:47:42.000Z,79.2
2023-02-04T15:48:57.000Z,78.3
2023-02-04T15:50:13.000Z,78.7
2023-02-04T15:51:29.000Z,78.4
2023-02-04T15:52:46.000Z,79.9
2023-02-04T15:54:02.000Z,79.1
2023-02-04T15:55:18.000Z,79.2
2023-02-04T15:56:34.000Z,78.8
2023-02-04T15:57:49.000Z,79.3
2023-02-04T15:59:05.000Z,80.1
2023-02-04T16:00:21.000Z,79.7
2023-02-04T16:01:37.000Z,79.5
2023-02-04T16:02:53.000Z,79.7
2023-02-04T16:04:10.000Z,80.3
2023-02-04T16:05:25.000Z,81.1
2023-02-04T16:06:41.000Z,80.6
2023-02-04T16:07:56.000Z,81.4
2023-02-04T16:09:13.000Z,80.6
2023-02-04T16:10:29.000Z,80.4
2023-02-04T16:13:01.000Z,80.3
2023-02-04T16:14:18.000Z,79.9
2023-02-04T16:15:34.000Z,80.7
2023-02-04T16:16:50.000Z,81
2023-02-04T16:18:06.000Z,80.8
2023-02-04T16:19:23.000Z,82.8
2023-02-04T16:20:39.000Z,81.4
2023-02-04T16:21:55.000Z,81.6
2023-02-04T16:23:11.000Z,81
2023-02-04T16:24:26.000Z,82
2023-02-04T16:25:43.000Z,82.8
2023-02-04T16:26:59.000Z,83.8
2023-02-04T16:28:15.000Z,83.7
2023-02-04T16:29:31.000Z,83.8
2023-02-04T16:30:48.000Z,84.2
2023-02-04T16:32:04.000Z,83.2
2023-02-04T16:33:20.000Z,82.8
2023-02-04T16:34:36.000Z,82.5
2023-02-04T16:35:53.000Z,82.9
2023-02-04T16:37:09.000Z,82.9
2023-02-04T16:38:25.000Z,82.7
2023-02-04T16:39:41.000Z,83.1
2023-02-04T16:40:57.000Z,83.4
2023-02-04T16:42:13.000Z,82.8
2023-02-04T16:43:28.000Z,83
2023-02-04T16:44:43.000Z,83
2023-02-04T16:46:00.000Z,83.5
2023-02-04T16:47:16.000Z,83.9
2023-02-04T16:48:32.000Z,84.1
2023-02-04T16:49:47.000Z,84.1
2023-02-04T16:51:02.000Z,84
2023-02-04T16:52:19.000Z,83.8
2023-02-04T16:53:35.000Z,83.5
2023-02-04T16:54:51.000Z,83.5
2023-02-04T16:56:07.000Z,83.8
2023-02-04T16:57:24.000Z,84.1
2023-02-04T16:58:40.000Z,84.2
2023-02-04T16:59:56.000Z,83.7
2023-02-04T17:01:12.000Z,83.1
2023-02-04T17:02:29.000Z,83.1
2023-02-04T17:03:45.000Z,82.8
2023-02-04T17:05:01.000Z,82.7
2023-02-04T17:06:17.000Z,83.1
2023-02-04T17:07:33.000Z,83.1
2023-02-04T17:08:49.000Z,83.1
2023-02-04T17:10:05.000Z,83.3
2023-02-04T17:11:21.000Z,83.7
2023-02-04T17:12:37.000Z,83.3
2023-02-04T17:13:54.000Z,83.1
2023-02-04T17:15:10.000Z,82.7
2023-02-04T17:16:26.000Z,82.6
2023-02-04T17:17:42.000Z,82.6
2023-02-04T17:18:59.000Z,82.5